Flight Track Log - Related Links

Times and Time Zones

All times are in EDT time to prevent confusion due to time zone crossing. See the N4508X flight status page for this flight to view local times or setup timezone preferences in your user account.

Time Position Orientation Groundspeed Altitude Reporting Facility
EDT Latitude Longitude Course Direction KTS MPH feet Rate Location/Type
Tue 11:30:48 AM 41.9311 -72.7275 222° Southwest 86 99 1,900  Level Boston Center
Tue 11:31:49 AM 41.9103 -72.7497 218° Southwest 89 102 2,400 298 Climbing Boston Center
Tue 11:32:49 AM 41.8850 -72.7747 216° Southwest 109 125 2,500 50 Climbing Boston Center
Tue 11:33:50 AM 41.8642 -72.8025 225° Southwest 113 130 2,500  Level Boston Center
Tue 11:34:51 AM 41.8369 -72.8331 220° Southwest 115 132 2,500 -49 Level Boston Center
Tue 11:35:52 AM 41.8119 -72.8633 222° Southwest 122 140 2,400  Descending Boston Center
Tue 11:36:00 AM 41.7791 -72.8741 222° Southwest  Level Estimated
Tue 11:36:53 AM 41.7889 -72.8911 222° Southwest 112 129 2,500  Level Boston Center
Tue 11:37:54 AM 41.7658 -72.9189 222° Southwest 112 129 2,500  Level Boston Center
Tue 11:38:54 AM 41.7406 -72.9464 219° Southwest 116 133 2,500 -99 Level Boston Center
Tue 11:39:55 AM 41.7175 -72.9797 227° Southwest 116 133 2,300  Descending Boston Center
Tue 11:40:56 AM 41.6925 -73.0044 216° Southwest 111 128 2,500 49 Climbing Boston Center
Tue 11:41:57 AM 41.6694 -73.0292 219° Southwest 111 128 2,400 -98 Descending Boston Center
Tue 11:43:00 AM 41.6356 -73.0505 205° Southwest  Level FlightAware Approximate
Tue 11:50:00 AM 41.4374 -73.2565 222° Southwest  Level FlightAware Approximate
Tue 11:51:00 AM 41.4107 -73.2881 222° Southwest  Level FlightAware Approximate
Tue 11:52:00 AM 41.3840 -73.3196 222° Southwest  Level FlightAware Approximate
Tue 11:53:00 AM 41.3573 -73.3511 222° Southwest  Level FlightAware Approximate
Tue 11:54:00 AM 41.3306 -73.3826 222° Southwest  Level FlightAware Approximate
Tue 11:55:00 AM 41.3039 -73.4140 221° Southwest  Level FlightAware Approximate
Tue 11:56:00 AM 41.2771 -73.4454 221° Southwest  Level FlightAware Approximate
Tue 11:57:00 AM 41.2504 -73.4768 221° Southwest  Level FlightAware Approximate
Tue 11:58:00 AM 41.2237 -73.5082 221° Southwest  Level FlightAware Approximate
Tue 11:59:00 AM 41.1969 -73.5395 221° Southwest  Level FlightAware Approximate
Tue 12:00:00 PM 41.1702 -73.5708 221° Southwest  Level FlightAware Approximate
Tue 12:01:00 PM 41.1434 -73.6021 221° Southwest  Level FlightAware Approximate
Tue 12:02:00 PM 41.1166 -73.6334 225° Southwest  Level FlightAware Approximate
Tue 12:03:00 PM 41.0915 -73.6670 225° Southwest  Level FlightAware Approximate
Tue 12:04:00 PM 41.0667 -73.7000 225° Southwest  Level FlightAware Approximate
Tue 12:05:00 PM 41.0669 -73.7076 225° Southwest  Level Estimated
Tue 12:06:00 PM 41.0667 -73.7000 225° Southwest  Level FlightAware Approximate
Tue 12:07:00 PM 41.0669 -73.7076 225° Southwest  Level Estimated
Tue 12:08:00 PM 41.0667 -73.7000 225° Southwest  Level FlightAware Approximate
Tue 12:09:00 PM 41.0669 -73.7076 225° Southwest  Level Estimated
Tue 12:10:00 PM 41.0667 -73.7000 225° Southwest  Level FlightAware Approximate
Tue 12:11:00 PM 41.0669 -73.7076 225° Southwest  Level Estimated
Tue 12:12:00 PM 41.0667 -73.7000 225° Southwest  Level FlightAware Approximate
Tue 12:13:00 PM 41.0669 -73.7076 225° Southwest  Level Estimated
Tue 12:14:00 PM 41.0667 -73.7000 225° Southwest  Level FlightAware Approximate
Tue 12:15:00 PM 41.0669 -73.7076 225° Southwest  Level Estimated
Tue 12:16:00 PM 41.0667 -73.7000 225° Southwest  Level FlightAware Approximate
Tue 12:17:00 PM 41.0669 -73.7076 225° Southwest  Level Estimated
Tue 12:18:00 PM 41.0667 -73.7000 225° Southwest  Level FlightAware Approximate

Login

Don't have an account? Register now (free) for customized features, flight alerts, and more!